KRSW/RSW METAR and TAF weather

Enter ICAO airport designator
Station Type Date Time Source
KRSW METAR 2020/09/19 20:53 UTC NOAA

KRSW 192053Z AUTO 33004KT 10SM OVC044 32/24 A2986 RMK AO2 SLP108 T03220239 56016


Station Type Date Time Source
KRSW Decoded METAR 2020/09/19 20:53 UTC NOAA

FORT MYERS SW FL INTERNATIONAL AIRPORT , FL, United States (KRSW) 26-32N 081-46W 9M
Sep 19, 2020 - 04:53 PM EDT / 2020.09.19 2053 UTC
Wind: from the NNW (330 degrees) at 5 MPH (4 KT):0
Visibility: 10 mile(s):0
Sky conditions: overcast
Temperature: 90.0 F (32.2 C)
Heat index: 100.2 F (37.9 C):1
Dew Point: 75.0 F (23.9 C)
Relative Humidity: 61%
Pressure (altimeter): 29.86 in. Hg (1011 hPa)
Pressure tendency: 0.05 inches (1.6 hPa) lower than three hours ago
ob: KRSW 192053Z AUTO 33004KT 10SM OVC044 32/24 A2986 RMK AO2 SLP108 T03220239 56016
cycle: 21

Station Type Date Time Source
KRSW TAF 2020/09/19 18:45 UTC NOAA

TAF KRSW 191743Z 1918/2018 28006KT P6SM SCT035 BKN250
FM192100 30009KT P6SM VCTS SCT040CB BKN250
FM200100 02005KT P6SM SCT030 BKN250
FM200800 03004KT P6SM BKN025 BKN050
FM201400 05011KT P6SM BKN025 BKN060

Example: see airport list